Time;durP1;ratioP1;P1;durP2;ratioP2;P2;SDS_P1;SDS_P2;PMS_P1;PMS_P2;Temp;Humidity;BMP_temperature;BMP_pressure;BME280_temperature;BME280_humidity;BME280_pressure;Samples;Min_cycle;Max_cycle;Signal;HPM_P1;HPM_P2
2023/05/19 00:01:44;;;;;;;2.80;2.50;;;;;;;9.15;71.61;101965.41;5003597;28;20203;-84
2023/05/19 00:04:13;;;;;;;4.80;3.10;;;;;;;9.15;71.70;101960.97;5005327;28;20211;-85
2023/05/19 00:06:41;;;;;;;5.00;3.07;;;;;;;9.18;71.94;101960.00;4999922;28;20238;-84
2023/05/19 00:09:09;;;;;;;5.40;2.97;;;;;;;9.20;72.69;101966.13;5006242;28;20203;-85
2023/05/19 00:11:37;;;;;;;4.00;2.60;;;;;;;9.19;72.02;101961.75;5007541;28;20218;-84
2023/05/19 00:14:08;;;;;;;4.97;2.50;;;;;;;9.17;71.83;101963.59;5001754;28;20239;-84
2023/05/19 00:16:36;;;;;;;3.83;2.20;;;;;;;9.14;72.06;101963.69;4999202;28;20736;-85
2023/05/19 00:19:04;;;;;;;6.80;2.93;;;;;;;9.11;72.07;101970.00;5007058;28;20210;-85
2023/05/19 00:21:31;;;;;;;5.20;2.73;;;;;;;9.05;71.67;101968.44;5007714;28;20207;-85
2023/05/19 00:23:58;;;;;;;3.33;2.17;;;;;;;9.01;72.13;101961.47;5001951;28;20299;-84
2023/05/19 00:26:25;;;;;;;2.90;1.80;;;;;;;8.99;72.40;101960.66;4999635;28;20242;-84
2023/05/19 00:28:53;;;;;;;4.60;2.50;;;;;;;8.97;73.23;101957.19;5005751;28;20259;-84
2023/05/19 00:31:21;;;;;;;4.93;2.20;;;;;;;8.97;72.41;101966.94;5007436;28;20237;-85
2023/05/19 00:33:47;;;;;;;4.67;2.40;;;;;;;8.96;72.63;101965.22;5015071;28;20206;-85
2023/05/19 00:36:14;;;;;;;3.17;2.20;;;;;;;8.92;72.73;101959.19;5012894;28;20233;-85
2023/05/19 00:38:40;;;;;;;4.23;2.47;;;;;;;8.87;72.90;101949.63;5007187;28;20211;-85
2023/05/19 00:41:07;;;;;;;6.27;2.10;;;;;;;8.83;72.65;101956.81;4997446;28;20214;-84
2023/05/19 00:43:34;;;;;;;6.43;2.80;;;;;;;8.78;73.59;101944.66;5001118;28;20208;-84
2023/05/19 00:46:00;;;;;;;4.00;2.57;;;;;;;8.73;73.90;101944.81;5009915;28;20285;-85
2023/05/19 00:48:28;;;;;;;4.93;2.90;;;;;;;8.70;73.67;101950.22;5016169;28;20203;-85
2023/05/19 00:51:00;;;;;;;4.53;2.43;;;;;;;8.65;74.43;101946.84;5013755;28;20227;-85
2023/05/19 00:53:27;;;;;;;3.90;2.73;;;;;;;8.63;75.00;101956.66;5004524;28;20211;-85
2023/05/19 00:55:53;;;;;;;6.57;2.93;;;;;;;8.62;75.21;101957.56;5005607;28;20223;-84
2023/05/19 00:58:22;;;;;;;4.83;2.73;;;;;;;8.60;74.95;101940.81;5017447;28;20206;-84
2023/05/19 01:00:49;;;;;;;5.03;2.57;;;;;;;8.59;75.01;101955.91;4999930;28;20200;-86
2023/05/19 01:03:19;;;;;;;3.67;2.70;;;;;;;8.58;75.72;101954.19;5000363;28;20703;-84
2023/05/19 01:05:48;;;;;;;6.10;2.93;;;;;;;8.57;75.66;101947.13;5002493;28;20244;-83
2023/05/19 01:08:15;;;;;;;4.13;2.43;;;;;;;8.54;76.13;101941.91;5007217;28;20214;-84
2023/05/19 01:10:41;;;;;;;6.77;2.70;;;;;;;8.53;75.97;101934.00;5003748;28;20237;-85
2023/05/19 01:13:08;;;;;;;4.57;2.77;;;;;;;8.49;75.82;101946.50;5003054;28;20218;-84
2023/05/19 01:15:57;;;;;;;6.57;2.87;;;;;;;8.48;77.18;101943.91;5003727;28;20227;-82
2023/05/19 01:18:30;;;;;;;3.73;2.50;;;;;;;8.47;76.93;101937.72;5001271;28;20202;-85
2023/05/19 01:21:15;;;;;;;3.97;2.57;;;;;;;8.49;77.09;101940.31;5008279;28;20565;-83
2023/05/19 01:23:53;;;;;;;4.03;2.73;;;;;;;8.48;77.60;101934.16;5003313;28;20203;-84
2023/05/19 01:26:40;;;;;;;5.77;2.90;;;;;;;8.49;77.47;101935.00;5006912;28;20223;-84
2023/05/19 01:29:37;;;;;;;4.53;2.70;;;;;;;8.50;78.05;101939.41;5006231;28;20195;-84
2023/05/19 01:32:07;;;;;;;6.93;3.10;;;;;;;8.44;77.58;101940.47;5000860;28;20219;-84
2023/05/19 01:34:38;;;;;;;8.07;2.80;;;;;;;8.46;78.03;101938.63;5004095;28;20199;-84
2023/05/19 01:37:05;;;;;;;7.63;3.17;;;;;;;8.45;77.83;101936.91;5008128;28;20199;-85
2023/05/19 01:39:33;;;;;;;5.57;3.17;;;;;;;8.46;77.66;101943.09;5009210;28;20199;-85
2023/05/19 01:42:01;;;;;;;6.17;3.10;;;;;;;8.46;77.89;101943.94;5012560;28;20213;-85
2023/05/19 01:44:28;;;;;;;6.30;3.27;;;;;;;8.47;78.25;101944.81;5005574;28;20202;-86
2023/05/19 01:46:55;;;;;;;4.43;3.37;;;;;;;8.46;77.50;101943.94;5005946;28;20226;-85
2023/05/19 01:49:23;;;;;;;7.07;3.33;;;;;;;8.47;78.08;101945.69;5009686;28;20207;-85
2023/05/19 01:51:49;;;;;;;5.87;3.33;;;;;;;8.47;77.23;101942.16;5008174;28;20227;-85
2023/05/19 01:54:16;;;;;;;7.10;3.20;;;;;;;8.47;77.60;101940.38;5015496;28;20213;-86
2023/05/19 01:56:49;;;;;;;7.67;3.50;;;;;;;8.46;76.95;101935.97;5000417;28;20234;-85
2023/05/19 01:59:27;;;;;;;7.40;3.60;;;;;;;8.47;77.01;101940.38;5008718;28;20676;-85
2023/05/19 02:01:58;;;;;;;3.73;3.07;;;;;;;8.48;77.36;101941.25;5016029;28;20195;-86
2023/05/19 02:04:37;;;;;;;7.03;4.03;;;;;;;8.48;77.16;101947.44;5004165;28;20663;-86
2023/05/19 02:07:13;;;;;;;5.30;3.50;;;;;;;8.48;76.13;101941.25;5005305;28;20211;-85
2023/05/19 02:09:51;;;;;;;3.50;2.80;;;;;;;8.49;76.62;101943.84;5005364;28;20215;-85
2023/05/19 02:12:24;;;;;;;4.70;3.07;;;;;;;8.48;76.34;101947.44;5007216;28;20730;-85
2023/05/19 02:14:58;;;;;;;4.83;3.07;;;;;;;8.48;76.65;101949.22;5013828;28;20282;-85
2023/05/19 02:17:27;;;;;;;6.70;2.93;;;;;;;8.47;76.06;101950.13;5002388;28;20195;-86
2023/05/19 02:19:56;;;;;;;4.73;3.30;;;;;;;8.45;75.85;101939.56;5008848;28;20199;-86
2023/05/19 02:22:23;;;;;;;7.13;3.30;;;;;;;8.45;75.99;101944.88;5004410;28;20210;-86
2023/05/19 02:24:50;;;;;;;6.33;3.40;;;;;;;8.44;75.41;101937.81;5007027;28;20214;-85
2023/05/19 02:27:17;;;;;;;6.87;3.43;;;;;;;8.43;75.60;101937.88;5007784;28;20257;-85
2023/05/19 02:29:44;;;;;;;5.00;3.33;;;;;;;8.42;76.11;101944.97;5003960;28;20203;-85
2023/05/19 02:32:10;;;;;;;6.50;3.80;;;;;;;8.42;75.57;101939.66;5018769;28;20226;-85
2023/05/19 02:34:37;;;;;;;6.10;3.03;;;;;;;8.41;75.47;101948.56;5008756;28;20206;-85
2023/05/19 02:37:06;;;;;;;8.17;3.57;;;;;;;8.40;76.00;101938.00;5013825;28;20206;-85
2023/05/19 02:39:34;;;;;;;5.47;3.37;;;;;;;8.41;75.45;101942.41;5008119;28;20233;-86
2023/05/19 02:42:00;;;;;;;7.63;3.80;;;;;;;8.39;75.22;101944.22;5008933;28;20242;-85
2023/05/19 02:44:27;;;;;;;6.93;3.27;;;;;;;8.39;75.76;101941.56;5002868;28;20210;-85
2023/05/19 02:46:53;;;;;;;6.63;3.50;;;;;;;8.38;76.06;101935.41;4996752;28;20834;-85
2023/05/19 02:49:19;;;;;;;8.53;3.67;;;;;;;8.38;76.32;101940.72;5006013;28;20219;-85
2023/05/19 02:51:46;;;;;;;5.73;3.67;;;;;;;8.36;76.72;101937.22;5003049;28;20270;-85
2023/05/19 02:54:14;;;;;;;5.47;3.30;;;;;;;8.35;76.26;101924.88;5002402;28;20207;-86
2023/05/19 02:56:40;;;;;;;8.27;3.70;;;;;;;8.35;76.78;101930.19;5002236;28;20226;-85
2023/05/19 02:59:07;;;;;;;5.67;3.70;;;;;;;8.34;76.37;101929.31;5009762;28;20211;-86
2023/05/19 03:01:33;;;;;;;10.43;4.50;;;;;;;8.32;76.18;101922.31;5007728;28;20285;-85
2023/05/19 03:04:00;;;;;;;6.93;3.50;;;;;;;8.29;76.64;101923.25;5002104;28;20214;-86
2023/05/19 03:06:26;;;;;;;9.33;3.90;;;;;;;8.29;76.49;101909.97;4996644;28;20224;-86
2023/05/19 03:08:52;;;;;;;7.40;3.70;;;;;;;8.27;77.09;101921.56;5001414;28;20199;-86
2023/05/19 03:11:22;;;;;;;5.67;4.10;;;;;;;8.21;75.99;101914.69;5002977;28;20234;-86
2023/05/19 03:13:48;;;;;;;3.83;3.20;;;;;;;8.15;76.15;101920.19;4997155;28;20210;-87
2023/05/19 03:16:14;;;;;;;3.93;3.20;;;;;;;8.09;76.60;101915.09;5005088;28;20224;-86
2023/05/19 03:18:41;;;;;;;4.77;3.47;;;;;;;8.06;76.71;101923.13;5007077;28;20217;-85
2023/05/19 03:21:07;;;;;;;6.27;3.10;;;;;;;8.04;77.79;101925.00;5012361;28;20717;-86
2023/05/19 03:23:34;;;;;;;6.27;3.30;;;;;;;8.02;77.19;101921.53;5002685;28;20211;-85
2023/05/19 03:26:01;;;;;;;5.30;3.83;;;;;;;8.01;77.51;101922.44;5001639;28;20242;-86
2023/05/19 03:28:28;;;;;;;7.40;3.53;;;;;;;7.99;77.70;101918.97;4999848;28;20583;-86
2023/05/19 03:30:55;;;;;;;4.97;3.37;;;;;;;7.98;78.24;101919.88;5006996;28;20202;-86
2023/05/19 03:33:22;;;;;;;7.03;3.23;;;;;;;7.97;78.08;101921.66;5005998;28;20591;-84
2023/05/19 03:35:49;;;;;;;7.27;3.30;;;;;;;7.96;78.13;101917.28;5018390;28;20222;-87
2023/05/19 03:38:16;;;;;;;5.70;3.63;;;;;;;7.96;78.62;101927.03;5002428;28;20670;-85
2023/05/19 03:40:42;;;;;;;6.20;3.77;;;;;;;7.95;78.90;101920.84;5009171;28;20226;-85
2023/05/19 03:43:09;;;;;;;7.20;3.30;;;;;;;7.96;79.50;101929.66;5003229;28;20195;-86
2023/05/19 03:45:37;;;;;;;5.63;4.03;;;;;;;7.96;79.26;101927.88;5001353;28;20246;-85
2023/05/19 03:48:03;;;;;;;8.83;4.00;;;;;;;7.96;79.24;101927.88;5007861;28;20675;-84
2023/05/19 03:50:30;;;;;;;6.07;3.80;;;;;;;7.98;78.92;101927.84;5002715;28;20207;-86
2023/05/19 03:52:57;;;;;;;5.20;3.70;;;;;;;7.98;79.85;101928.72;5007405;28;20234;-85
2023/05/19 03:55:24;;;;;;;5.77;3.50;;;;;;;7.95;79.14;101926.16;5010256;28;20863;-86
2023/05/19 03:57:51;;;;;;;5.43;3.43;;;;;;;7.95;79.25;101920.84;5010873;28;20230;-87
2023/05/19 04:00:19;;;;;;;6.87;3.73;;;;;;;7.93;79.71;101921.81;5002924;28;20214;-85
2023/05/19 04:02:46;;;;;;;5.93;4.00;;;;;;;7.93;80.21;101921.81;5003117;28;20225;-85
2023/05/19 04:05:14;;;;;;;6.67;3.37;;;;;;;7.94;79.77;101927.06;5010038;28;20225;-86
2023/05/19 04:07:40;;;;;;;4.07;3.50;;;;;;;7.96;80.06;101921.72;5006647;28;20203;-86
2023/05/19 04:10:08;;;;;;;4.97;4.07;;;;;;;7.98;80.46;101925.19;5004909;28;20214;-86
2023/05/19 04:12:34;;;;;;;5.77;3.93;;;;;;;7.97;80.44;101920.78;5003601;28;20224;-84
2023/05/19 04:15:01;;;;;;;8.77;3.50;;;;;;;7.97;80.38;101929.63;5004215;28;20222;-86
2023/05/19 04:17:28;;;;;;;6.20;3.33;;;;;;;7.97;80.61;101936.72;5011931;28;20207;-87
2023/05/19 04:19:55;;;;;;;5.60;3.47;;;;;;;7.99;80.95;101926.94;5007349;28;20242;-85
2023/05/19 04:22:22;;;;;;;7.07;3.90;;;;;;;8.00;81.60;101929.53;5009339;28;20203;-86
2023/05/19 04:24:49;;;;;;;8.20;3.83;;;;;;;8.00;81.54;101926.88;5002449;28;20207;-85
2023/05/19 04:27:16;;;;;;;9.33;4.73;;;;;;;8.03;80.90;101931.22;5017126;28;20254;-86
2023/05/19 04:29:44;;;;;;;5.90;3.57;;;;;;;8.04;81.17;101930.31;5008072;28;20219;-86
2023/05/19 04:32:16;;;;;;;6.90;4.00;;;;;;;8.05;80.91;101929.41;5009437;28;20288;-86
2023/05/19 04:34:44;;;;;;;8.47;4.40;;;;;;;8.06;81.14;101927.59;5005185;28;20203;-87
2023/05/19 04:37:12;;;;;;;6.57;3.83;;;;;;;8.09;81.42;101938.09;5002917;28;20286;-86
2023/05/19 04:39:41;;;;;;;6.60;4.60;;;;;;;8.11;80.96;101939.78;5007927;28;20211;-85
2023/05/19 04:42:08;;;;;;;8.00;5.00;;;;;;;8.14;81.62;101938.81;5011397;28;20230;-86
2023/05/19 04:44:36;;;;;;;8.37;4.37;;;;;;;8.16;81.73;101932.56;5004709;28;20215;-85
2023/05/19 04:47:04;;;;;;;5.67;4.10;;;;;;;8.19;82.06;101934.25;5002085;28;20208;-87
2023/05/19 04:49:31;;;;;;;7.97;4.40;;;;;;;8.21;81.83;101943.88;5009237;28;20325;-87
2023/05/19 04:51:58;;;;;;;10.17;4.50;;;;;;;8.23;81.17;101943.84;5005588;28;20250;-86
2023/05/19 04:54:26;;;;;;;5.60;4.83;;;;;;;8.24;81.62;101938.44;5007246;28;20210;-87
2023/05/19 04:56:52;;;;;;;10.67;4.50;;;;;;;8.26;81.35;101939.28;5004473;28;20223;-85
2023/05/19 04:59:22;;;;;;;7.50;4.30;;;;;;;8.29;81.20;101947.13;5005015;28;20204;-85
2023/05/19 05:01:48;;;;;;;4.93;4.07;;;;;;;8.32;82.14;101940.91;5008617;28;20215;-86
2023/05/19 05:04:15;;;;;;;7.80;4.47;;;;;;;8.34;81.76;101947.91;5013632;28;20207;-86
2023/05/19 05:06:46;;;;;;;6.40;4.20;;;;;;;8.38;81.07;101942.50;5002633;28;20232;-85
2023/05/19 05:09:13;;;;;;;12.27;5.03;;;;;;;8.42;81.70;101936.16;5006903;28;20667;-86
2023/05/19 05:11:41;;;;;;;6.37;4.63;;;;;;;8.45;81.41;101938.69;5003234;28;20235;-85
2023/05/19 05:14:09;;;;;;;10.67;5.00;;;;;;;8.50;81.54;101945.59;5007094;28;20742;-85
2023/05/19 05:16:36;;;;;;;8.33;4.87;;;;;;;8.54;81.48;101935.75;5013766;28;20738;-85
2023/05/19 05:19:03;;;;;;;8.50;4.53;;;;;;;8.61;82.32;101940.75;5007857;28;20682;-85
2023/05/19 05:21:30;;;;;;;13.00;6.17;;;;;;;8.67;82.45;101937.03;5004323;28;20640;-85
2023/05/19 05:23:57;;;;;;;5.40;4.77;;;;;;;8.73;82.24;101936.84;5007717;28;20281;-84
2023/05/19 05:26:29;;;;;;;7.03;4.30;;;;;;;8.80;82.73;101937.47;5005053;28;20223;-85
2023/05/19 05:28:57;;;;;;;10.07;4.57;;;;;;;8.87;82.72;101933.69;5011376;28;20205;-84
2023/05/19 05:31:24;;;;;;;12.43;5.30;;;;;;;8.92;81.78;101932.59;5007899;28;20203;-86
2023/05/19 05:33:50;;;;;;;8.03;4.53;;;;;;;8.96;82.45;101933.34;5005025;28;20291;-85
2023/05/19 05:36:17;;;;;;;10.10;4.97;;;;;;;9.01;81.96;101924.28;5007004;28;20230;-86
2023/05/19 05:38:43;;;;;;;7.50;4.90;;;;;;;9.08;82.14;101927.59;5002172;28;20200;-85
2023/05/19 05:41:10;;;;;;;6.93;5.23;;;;;;;9.19;82.20;101927.19;5005896;28;20594;-86
2023/05/19 05:43:36;;;;;;;8.03;4.50;;;;;;;9.30;83.12;101927.66;5003198;28;20210;-85
2023/05/19 05:46:04;;;;;;;7.40;4.40;;;;;;;9.42;82.76;101921.88;4995246;28;20231;-85
2023/05/19 05:48:31;;;;;;;6.10;4.37;;;;;;;9.55;83.30;101917.81;5003595;28;20207;-86
2023/05/19 05:50:59;;;;;;;6.80;4.37;;;;;;;9.66;82.11;101922.72;5008423;28;20214;-85
2023/05/19 05:53:28;;;;;;;8.17;4.47;;;;;;;9.78;82.00;101924.91;5007529;28;20241;-84
2023/05/19 05:55:55;;;;;;;5.87;4.10;;;;;;;9.87;81.17;101926.31;5002827;28;20226;-84
2023/05/19 05:58:21;;;;;;;6.93;4.40;;;;;;;9.96;80.99;101929.47;5005197;28;20416;-84
2023/05/19 06:00:50;;;;;;;7.40;4.70;;;;;;;10.07;81.05;101934.34;5001722;28;20211;-85
2023/05/19 06:03:20;;;;;;;7.23;4.20;;;;;;;10.18;80.80;101940.13;4998558;28;20637;-84
2023/05/19 06:05:47;;;;;;;10.63;4.33;;;;;;;10.30;80.34;101944.97;5002784;28;20238;-85
2023/05/19 06:08:13;;;;;;;6.43;5.00;;;;;;;10.46;80.37;101936.31;5006782;28;20214;-86
2023/05/19 06:10:41;;;;;;;8.30;4.23;;;;;;;10.61;79.90;101941.00;5007071;28;20216;-85
2023/05/19 06:13:08;;;;;;;6.50;4.37;;;;;;;10.78;79.42;101942.00;5011265;28;20942;-85
2023/05/19 06:15:34;;;;;;;11.27;4.70;;;;;;;10.93;78.14;101937.78;5003440;28;20606;-84
2023/05/19 06:18:01;;;;;;;5.40;3.60;;;;;;;11.08;77.41;101938.94;5007511;28;20205;-84
2023/05/19 06:20:29;;;;;;;7.83;4.43;;;;;;;11.23;77.05;101943.56;5006854;28;20658;-85
2023/05/19 06:22:56;;;;;;;7.23;4.50;;;;;;;11.39;76.60;101938.38;5009272;28;20211;-84
2023/05/19 06:25:23;;;;;;;6.67;3.87;;;;;;;11.55;75.46;101936.72;5006501;28;20230;-85
2023/05/19 06:27:50;;;;;;;8.47;4.03;;;;;;;11.70;74.85;101938.66;5004480;28;20717;-84
2023/05/19 06:30:16;;;;;;;7.40;3.87;;;;;;;11.84;74.68;101938.03;5005794;28;20214;-85
2023/05/19 06:32:43;;;;;;;6.13;3.53;;;;;;;11.98;73.44;101934.72;5009647;28;20697;-83
2023/05/19 06:35:09;;;;;;;6.47;3.40;;;;;;;12.11;72.55;101933.19;5010282;28;20599;-83
2023/05/19 06:37:37;;;;;;;10.93;4.00;;;;;;;12.22;72.23;101936.16;5009933;28;20265;-84
2023/05/19 06:40:04;;;;;;;6.20;2.90;;;;;;;12.35;71.40;101933.78;5005523;28;20207;-83
2023/05/19 06:42:31;;;;;;;9.03;3.67;;;;;;;12.49;70.73;101923.25;5003090;28;20235;-85
2023/05/19 06:44:57;;;;;;;8.13;3.20;;;;;;;12.60;69.85;101923.53;5004997;28;20242;-84
2023/05/19 06:47:24;;;;;;;7.23;3.50;;;;;;;12.73;70.13;101931.78;5005277;28;20210;-83
2023/05/19 06:49:53;;;;;;;6.07;3.07;;;;;;;12.85;69.31;101932.03;5004523;28;20214;-84
2023/05/19 06:52:20;;;;;;;6.80;3.70;;;;;;;12.97;69.23;101935.84;5001972;28;20231;-84
2023/05/19 06:54:48;;;;;;;6.90;3.30;;;;;;;13.11;68.53;101935.13;5002738;28;20676;-83
2023/05/19 06:57:15;;;;;;;6.67;3.40;;;;;;;13.22;67.69;101927.44;5005347;28;20203;-85
2023/05/19 06:59:42;;;;;;;6.03;3.23;;;;;;;13.32;66.77;101923.28;5011683;28;20221;-85
2023/05/19 07:02:09;;;;;;;6.00;3.33;;;;;;;13.39;65.49;101926.50;5001673;28;20600;-85
2023/05/19 07:04:35;;;;;;;7.20;3.50;;;;;;;13.46;65.40;101926.06;4997967;28;20200;-83
2023/05/19 07:07:02;;;;;;;8.33;3.30;;;;;;;13.60;66.02;101921.78;5000110;28;20227;-84
2023/05/19 07:09:28;;;;;;;6.70;3.63;;;;;;;13.72;65.27;101923.75;5007542;28;20203;-86
2023/05/19 07:11:56;;;;;;;6.20;3.13;;;;;;;13.85;65.13;101919.44;5000725;28;20216;-85
2023/05/19 07:14:23;;;;;;;7.77;3.87;;;;;;;13.99;64.08;101922.19;5007506;28;20202;-84
2023/05/19 07:16:49;;;;;;;8.47;3.17;;;;;;;14.12;63.56;101917.88;5006323;28;20227;-83
2023/05/19 07:19:18;;;;;;;4.37;3.00;;;;;;;14.21;62.83;101920.00;5002728;28;20212;-84
2023/05/19 07:21:44;;;;;;;6.20;3.40;;;;;;;14.31;62.49;101922.16;5008420;28;20206;-84
2023/05/19 07:24:11;;;;;;;8.43;4.10;;;;;;;14.39;61.55;101920.72;5003655;28;20211;-85
2023/05/19 07:26:38;;;;;;;5.73;3.37;;;;;;;14.51;61.68;101919.19;5005162;28;20651;-84
2023/05/19 07:29:06;;;;;;;8.60;3.20;;;;;;;14.63;60.88;101922.94;4999963;28;20235;-83
2023/05/19 07:31:32;;;;;;;6.40;3.73;;;;;;;14.74;60.42;101920.47;5001264;28;20199;-84
2023/05/19 07:33:58;;;;;;;7.50;3.30;;;;;;;14.81;60.03;101909.28;5000602;28;20737;-84
2023/05/19 07:36:26;;;;;;;5.93;3.60;;;;;;;14.90;59.49;101915.91;5003097;28;20234;-84
2023/05/19 07:38:52;;;;;;;6.17;3.27;;;;;;;15.02;59.75;101911.63;4994990;28;20817;-85
2023/05/19 07:41:18;;;;;;;7.20;3.40;;;;;;;15.11;58.60;101909.22;5006397;28;20625;-84
2023/05/19 07:43:45;;;;;;;6.37;2.93;;;;;;;15.19;58.46;101912.28;5002276;28;20204;-83
2023/05/19 07:46:13;;;;;;;8.63;3.37;;;;;;;15.26;58.28;101907.38;4995064;28;20239;-84
2023/05/19 07:48:39;;;;;;;5.33;2.80;;;;;;;15.34;58.14;101906.91;5005118;28;20208;-83
2023/05/19 07:51:08;;;;;;;8.53;3.33;;;;;;;15.38;58.31;101901.25;5003018;28;20238;-85
2023/05/19 07:53:35;;;;;;;5.50;3.20;;;;;;;15.44;57.32;101908.03;5002960;28;20229;-85
2023/05/19 07:56:01;;;;;;;7.17;3.53;;;;;;;15.53;57.69;101902.09;4998096;28;20715;-84
2023/05/19 07:58:28;;;;;;;7.93;3.40;;;;;;;15.65;58.10;101906.69;5002694;28;20209;-83
2023/05/19 08:00:57;;;;;;;9.43;4.03;;;;;;;15.77;57.38;101903.19;5008204;28;20212;-84
2023/05/19 08:03:25;;;;;;;6.57;3.43;;;;;;;15.81;56.49;101902.06;5001224;28;20206;-85
2023/05/19 08:05:52;;;;;;;7.03;3.23;;;;;;;15.89;56.25;101896.19;5010365;28;20805;-85
2023/05/19 08:08:19;;;;;;;6.50;3.27;;;;;;;15.93;55.46;101903.94;4997187;28;20209;-84
2023/05/19 08:10:45;;;;;;;5.47;3.10;;;;;;;16.04;55.34;101907.75;5007137;28;20268;-86
2023/05/19 08:13:12;;;;;;;5.97;3.00;;;;;;;16.14;54.88;101908.84;5007282;28;20230;-85
2023/05/19 08:15:38;;;;;;;7.77;3.20;;;;;;;16.26;54.66;101900.84;5001658;28;20229;-85
2023/05/19 08:18:05;;;;;;;7.20;3.10;;;;;;;16.36;53.56;101897.50;5004040;28;20206;-84
2023/05/19 08:20:33;;;;;;;7.00;2.83;;;;;;;16.40;53.00;101897.22;5001324;28;20649;-85
2023/05/19 08:22:59;;;;;;;7.17;3.20;;;;;;;16.43;52.96;101896.16;5004449;28;20205;-84
2023/05/19 08:25:26;;;;;;;4.17;2.83;;;;;;;16.53;53.81;101892.72;5005941;28;20236;-85
2023/05/19 08:27:52;;;;;;;7.87;3.30;;;;;;;16.71;53.48;101895.13;5002546;28;20209;-84
2023/05/19 08:30:18;;;;;;;8.33;3.43;;;;;;;16.78;52.76;101886.53;5004990;28;20211;-85
2023/05/19 08:32:45;;;;;;;8.60;3.33;;;;;;;16.90;52.89;101885.66;5000378;28;20230;-85
2023/05/19 08:35:12;;;;;;;8.37;3.60;;;;;;;17.05;52.46;101878.34;5001974;28;20362;-84
2023/05/19 08:37:40;;;;;;;4.83;3.40;;;;;;;17.20;52.49;101882.63;5002168;28;20208;-82
2023/05/19 08:40:08;;;;;;;8.97;3.40;;;;;;;17.31;51.25;101884.56;5007255;28;20691;-85
2023/05/19 08:42:34;;;;;;;5.70;3.20;;;;;;;17.37;50.58;101881.44;4998904;28;20231;-84
2023/05/19 08:45:02;;;;;;;7.17;3.50;;;;;;;17.45;50.55;101881.72;4996085;28;20241;-85
2023/05/19 08:47:29;;;;;;;10.50;3.13;;;;;;;17.54;50.35;101874.81;5002481;28;20208;-82
2023/05/19 08:50:03;;;;;;;6.50;2.83;;;;;;;17.63;50.00;101874.13;5008999;28;20750;-85
2023/05/19 08:52:35;;;;;;;6.00;3.17;;;;;;;17.71;49.46;101869.09;5005989;28;20200;-85
2023/05/19 08:55:09;;;;;;;6.50;3.00;;;;;;;17.82;50.44;101863.75;4998728;28;20220;-85
2023/05/19 08:57:36;;;;;;;3.53;2.40;;;;;;;17.85;48.73;101860.81;5008276;28;20237;-84
2023/05/19 09:00:07;;;;;;;5.00;2.40;;;;;;;17.90;48.59;101857.78;5002688;28;20213;-83
2023/05/19 09:02:35;;;;;;;6.13;2.97;;;;;;;17.95;48.39;101853.75;5006516;28;20259;-85
2023/05/19 09:05:02;;;;;;;7.00;2.93;;;;;;;18.03;49.01;101850.50;4999282;28;20241;-83
2023/05/19 09:07:33;;;;;;;6.40;3.30;;;;;;;18.12;49.21;101847.09;5004027;28;20228;-84
2023/05/19 09:10:00;;;;;;;7.60;3.50;;;;;;;18.21;49.19;101842.84;5000743;28;20271;-82
2023/05/19 09:12:28;;;;;;;5.67;3.30;;;;;;;18.27;48.53;101853.19;5008463;28;20293;-84
2023/05/19 09:14:55;;;;;;;6.07;3.27;;;;;;;18.31;48.32;101854.63;5005519;28;20209;-84
2023/05/19 09:17:23;;;;;;;7.03;2.93;;;;;;;18.35;47.87;101842.63;5009779;28;20667;-85
2023/05/19 09:19:49;;;;;;;7.67;3.57;;;;;;;18.41;48.07;101847.56;5010591;28;20209;-84
2023/05/19 09:22:17;;;;;;;6.37;3.00;;;;;;;18.45;47.21;101846.34;5003753;28;20619;-85
2023/05/19 09:24:44;;;;;;;5.07;2.90;;;;;;;18.50;47.36;101838.75;4999303;28;20201;-85
2023/05/19 09:27:14;;;;;;;5.53;2.37;;;;;;;18.60;47.28;101845.19;5004798;28;20300;-84
2023/05/19 09:29:42;;;;;;;6.67;2.50;;;;;;;18.62;46.36;101840.53;5002194;28;20221;-84
2023/05/19 09:32:09;;;;;;;6.60;2.93;;;;;;;18.66;46.68;101839.31;5000654;28;20213;-83
2023/05/19 09:34:41;;;;;;;5.27;2.57;;;;;;;18.73;46.79;101835.16;5008666;28;20229;-85
2023/05/19 09:37:08;;;;;;;4.90;2.90;;;;;;;18.77;46.31;101829.50;5006733;28;20202;-85
2023/05/19 09:39:35;;;;;;;5.60;2.67;;;;;;;18.84;46.56;101831.59;5007224;28;20216;-84
2023/05/19 09:42:06;;;;;;;5.10;2.90;;;;;;;18.91;46.27;101831.97;5006884;28;20242;-79
2023/05/19 09:44:35;;;;;;;4.03;2.83;;;;;;;18.95;45.60;101830.75;5007245;28;20207;-78
2023/05/19 09:47:03;;;;;;;5.30;2.57;;;;;;;18.99;45.76;101829.50;5014928;28;20547;-79
2023/05/19 09:49:31;;;;;;;5.23;2.47;;;;;;;19.01;45.72;101832.94;5015965;28;20680;-79
2023/05/19 09:51:59;;;;;;;3.97;2.47;;;;;;;19.00;45.57;101825.81;5013126;28;20207;-80
2023/05/19 09:54:28;;;;;;;5.90;2.63;;;;;;;19.02;45.62;101822.03;5013175;28;20232;-79
2023/05/19 09:57:01;;;;;;;3.07;2.17;;;;;;;19.08;45.99;101829.63;5012317;28;20726;-78
2023/05/19 09:59:29;;;;;;;5.97;2.57;;;;;;;19.14;45.44;101817.50;5012341;28;20214;-80
2023/05/19 10:01:56;;;;;;;3.80;2.23;;;;;;;19.19;44.75;101819.81;4996068;28;20570;-79
2023/05/19 10:04:26;;;;;;;6.10;2.37;;;;;;;19.25;45.92;101817.47;5006236;28;20206;-78
2023/05/19 10:06:54;;;;;;;3.73;2.07;;;;;;;19.37;45.49;101815.59;5013258;28;20262;-79
2023/05/19 10:09:23;;;;;;;4.93;2.20;;;;;;;19.41;45.11;101808.97;5002045;28;20209;-78
2023/05/19 10:11:51;;;;;;;3.60;2.20;;;;;;;19.45;44.92;101804.19;5001388;28;20618;-78
2023/05/19 10:14:19;;;;;;;6.40;2.23;;;;;;;19.43;44.53;101802.47;5002497;28;20222;-79
2023/05/19 10:16:45;;;;;;;5.47;2.03;;;;;;;19.39;44.17;101803.69;4997819;28;20249;-79
2023/05/19 10:19:13;;;;;;;5.53;2.67;;;;;;;19.36;43.57;101795.81;4992675;28;20215;-79
2023/05/19 10:21:41;;;;;;;2.97;1.73;;;;;;;19.39;43.23;101789.31;5009699;28;20225;-79
2023/05/19 10:24:08;;;;;;;3.43;1.90;;;;;;;19.43;43.33;101791.66;5013598;28;20209;-80
2023/05/19 10:26:35;;;;;;;3.57;2.20;;;;;;;19.51;43.26;101774.84;5028172;28;20227;-79
2023/05/19 10:29:04;;;;;;;2.93;1.50;;;;;;;19.58;42.97;101784.16;5018397;28;20207;-79
2023/05/19 10:31:32;;;;;;;2.43;1.70;;;;;;;19.63;42.79;101771.13;4998133;28;20209;-78
2023/05/19 10:34:32;;;;;;;3.10;1.90;;;;;;;19.60;42.02;101771.38;5005938;28;20835;-78
2023/05/19 10:37:13;;;;;;;4.37;1.77;;;;;;;19.51;42.02;101768.59;5010569;28;20235;-79
2023/05/19 10:39:43;;;;;;;2.93;1.53;;;;;;;19.48;41.86;101772.38;5014104;28;20197;-80
2023/05/19 10:42:15;;;;;;;6.27;2.07;;;;;;;19.43;42.01;101769.19;5004092;28;20598;-80
2023/05/19 10:44:53;;;;;;;2.67;1.60;;;;;;;19.38;41.96;101772.25;5009458;28;20686;-80
2023/05/19 10:47:23;;;;;;;3.23;1.90;;;;;;;19.39;42.40;101763.16;5009887;28;20202;-79
2023/05/19 10:49:52;;;;;;;3.97;1.63;;;;;;;19.39;41.91;101768.56;5011585;28;20214;-80
2023/05/19 10:52:25;;;;;;;3.10;1.40;;;;;;;19.40;41.71;101758.63;5014020;28;20610;-79
2023/05/19 10:54:53;;;;;;;3.43;1.50;;;;;;;19.43;41.90;101761.94;5003636;28;20250;-79
2023/05/19 10:57:25;;;;;;;2.83;1.30;;;;;;;19.48;42.06;101756.16;5012718;28;20219;-79
2023/05/19 10:59:52;;;;;;;3.17;1.60;;;;;;;19.49;41.43;101755.16;5000031;28;20681;-78
2023/05/19 11:02:46;;;;;;;5.27;1.70;;;;;;;19.58;42.60;101750.84;5005264;28;20205;-78
2023/05/19 11:05:15;;;;;;;1.30;1.20;;;;;;;19.60;41.29;101754.28;4963900;28;20597;-77
2023/05/19 11:07:44;;;;;;;2.60;1.30;;;;;;;19.61;41.38;101750.59;5002920;28;20213;-78
2023/05/19 11:10:11;;;;;;;1.43;1.27;;;;;;;19.64;40.31;101745.81;5017104;28;20217;-79
2023/05/19 11:12:42;;;;;;;3.80;1.67;;;;;;;19.68;39.97;101751.81;4994985;28;20209;-79
2023/05/19 11:15:12;;;;;;;3.23;1.40;;;;;;;19.76;40.74;101746.59;5006544;28;20846;-78
2023/05/19 11:17:40;;;;;;;1.97;1.23;;;;;;;19.86;40.27;101746.69;5031472;28;20686;-78
2023/05/19 11:20:09;;;;;;;2.33;1.20;;;;;;;19.92;39.71;101741.59;5030635;28;20217;-78
2023/05/19 11:22:37;;;;;;;2.10;1.10;;;;;;;19.95;39.92;101746.75;5020097;28;20229;-80
2023/05/19 11:25:06;;;;;;;4.47;1.30;;;;;;;19.90;39.61;101738.19;5001480;28;20274;-78
2023/05/19 11:27:36;;;;;;;1.97;1.30;;;;;;;19.90;39.55;101738.19;5015729;28;20654;-78
2023/05/19 11:30:13;;;;;;;2.60;1.30;;;;;;;19.91;38.87;101731.78;5031631;28;20303;-78
2023/05/19 11:32:41;;;;;;;3.73;1.50;;;;;;;19.92;39.39;101732.63;5033880;28;20199;-80
2023/05/19 11:35:09;;;;;;;2.73;1.20;;;;;;;19.97;40.50;101747.50;5029294;28;20260;-79